sensor_id;sensor_type;location;lat;lon;timestamp;temperature;humidity
73137;DHT22;67767;45.636;11.756;2023-02-28T00:00:26;5.60;56.50
73137;DHT22;67767;45.636;11.756;2023-02-28T00:02:52;5.50;56.30
73137;DHT22;67767;45.636;11.756;2023-02-28T00:05:20;5.60;56.30
73137;DHT22;67767;45.636;11.756;2023-02-28T00:07:47;5.60;55.90
73137;DHT22;67767;45.636;11.756;2023-02-28T00:10:16;5.60;55.80
73137;DHT22;67767;45.636;11.756;2023-02-28T00:12:44;5.60;56.00
73137;DHT22;67767;45.636;11.756;2023-02-28T00:15:11;5.60;56.00
73137;DHT22;67767;45.636;11.756;2023-02-28T00:17:37;5.80;56.10
73137;DHT22;67767;45.636;11.756;2023-02-28T00:20:04;5.80;55.90
73137;DHT22;67767;45.636;11.756;2023-02-28T00:22:31;5.70;56.00
73137;DHT22;67767;45.636;11.756;2023-02-28T00:24:57;5.80;56.40
73137;DHT22;67767;45.636;11.756;2023-02-28T00:27:22;5.80;56.30
73137;DHT22;67767;45.636;11.756;2023-02-28T00:29:48;5.80;56.30
73137;DHT22;67767;45.636;11.756;2023-02-28T00:32:14;5.70;56.60
73137;DHT22;67767;45.636;11.756;2023-02-28T00:34:39;5.70;56.60
73137;DHT22;67767;45.636;11.756;2023-02-28T00:37:06;5.50;56.80
73137;DHT22;67767;45.636;11.756;2023-02-28T00:39:36;5.50;56.90
73137;DHT22;67767;45.636;11.756;2023-02-28T00:42:03;5.60;56.70
73137;DHT22;67767;45.636;11.756;2023-02-28T00:44:29;5.50;56.80
73137;DHT22;67767;45.636;11.756;2023-02-28T00:46:55;5.50;56.60
73137;DHT22;67767;45.636;11.756;2023-02-28T00:49:22;5.60;56.60
73137;DHT22;67767;45.636;11.756;2023-02-28T00:51:48;5.50;57.10
73137;DHT22;67767;45.636;11.756;2023-02-28T00:54:14;5.30;56.70
73137;DHT22;67767;45.636;11.756;2023-02-28T00:56:40;5.30;56.40
73137;DHT22;67767;45.636;11.756;2023-02-28T00:59:05;5.50;56.50
73137;DHT22;67767;45.636;11.756;2023-02-28T01:01:31;5.30;57.10
73137;DHT22;67767;45.636;11.756;2023-02-28T01:03:57;5.30;56.70
73137;DHT22;67767;45.636;11.756;2023-02-28T01:06:23;5.30;57.00
73137;DHT22;67767;45.636;11.756;2023-02-28T01:08:49;5.30;57.20
73137;DHT22;67767;45.636;11.756;2023-02-28T01:11:16;5.40;57.20
73137;DHT22;67767;45.636;11.756;2023-02-28T01:13:42;5.30;57.30
73137;DHT22;67767;45.636;11.756;2023-02-28T01:16:09;5.30;57.20
73137;DHT22;67767;45.636;11.756;2023-02-28T01:18:35;5.00;57.50
73137;DHT22;67767;45.636;11.756;2023-02-28T01:21:05;5.30;57.50
73137;DHT22;67767;45.636;11.756;2023-02-28T01:23:31;5.20;57.40
73137;DHT22;67767;45.636;11.756;2023-02-28T01:25:57;5.20;57.70
73137;DHT22;67767;45.636;11.756;2023-02-28T01:28:23;5.20;58.00
73137;DHT22;67767;45.636;11.756;2023-02-28T01:30:49;5.10;57.70
73137;DHT22;67767;45.636;11.756;2023-02-28T01:33:15;5.20;58.20
73137;DHT22;67767;45.636;11.756;2023-02-28T01:35:41;5.10;58.20
73137;DHT22;67767;45.636;11.756;2023-02-28T01:38:06;5.00;57.80
73137;DHT22;67767;45.636;11.756;2023-02-28T01:40:32;5.00;57.70
73137;DHT22;67767;45.636;11.756;2023-02-28T01:42:58;5.00;57.60
73137;DHT22;67767;45.636;11.756;2023-02-28T01:45:27;5.10;57.90
73137;DHT22;67767;45.636;11.756;2023-02-28T01:48:11;5.00;57.30
73137;DHT22;67767;45.636;11.756;2023-02-28T01:50:42;5.10;57.90
73137;DHT22;67767;45.636;11.756;2023-02-28T01:53:13;5.10;57.80
73137;DHT22;67767;45.636;11.756;2023-02-28T01:55:40;5.10;57.70
73137;DHT22;67767;45.636;11.756;2023-02-28T01:58:07;5.10;57.30
73137;DHT22;67767;45.636;11.756;2023-02-28T02:00:34;5.30;57.50
73137;DHT22;67767;45.636;11.756;2023-02-28T02:03:07;5.20;57.30
73137;DHT22;67767;45.636;11.756;2023-02-28T02:05:36;5.20;57.20
73137;DHT22;67767;45.636;11.756;2023-02-28T02:08:05;5.30;57.00
73137;DHT22;67767;45.636;11.756;2023-02-28T02:10:43;5.30;57.20
73137;DHT22;67767;45.636;11.756;2023-02-28T02:30:11;5.50;57.40
73137;DHT22;67767;45.636;11.756;2023-02-28T02:38:36;5.20;57.20
73137;DHT22;67767;45.636;11.756;2023-02-28T02:41:34;5.40;56.80
73137;DHT22;67767;45.636;11.756;2023-02-28T02:44:07;5.30;57.10
73137;DHT22;67767;45.636;11.756;2023-02-28T02:46:39;5.40;56.90
73137;DHT22;67767;45.636;11.756;2023-02-28T02:49:09;5.30;56.60
73137;DHT22;67767;45.636;11.756;2023-02-28T02:51:38;5.20;56.70
73137;DHT22;67767;45.636;11.756;2023-02-28T02:56:33;5.20;57.10
73137;DHT22;67767;45.636;11.756;2023-02-28T02:59:03;5.30;57.20
73137;DHT22;67767;45.636;11.756;2023-02-28T03:01:31;5.30;57.40
73137;DHT22;67767;45.636;11.756;2023-02-28T03:04:02;5.30;56.90
73137;DHT22;67767;45.636;11.756;2023-02-28T03:06:29;5.30;57.50
73137;DHT22;67767;45.636;11.756;2023-02-28T03:08:55;5.30;57.20
73137;DHT22;67767;45.636;11.756;2023-02-28T03:11:21;5.30;57.10
73137;DHT22;67767;45.636;11.756;2023-02-28T03:14:12;5.30;57.80
73137;DHT22;67767;45.636;11.756;2023-02-28T03:24:55;5.50;56.50
73137;DHT22;67767;45.636;11.756;2023-02-28T03:35:24;5.50;55.80
73137;DHT22;67767;45.636;11.756;2023-02-28T03:37:55;5.60;56.10
73137;DHT22;67767;45.636;11.756;2023-02-28T03:40:26;5.60;56.20
73137;DHT22;67767;45.636;11.756;2023-02-28T03:42:59;5.60;55.90
73137;DHT22;67767;45.636;11.756;2023-02-28T03:45:28;5.70;56.10
73137;DHT22;67767;45.636;11.756;2023-02-28T03:48:13;5.70;56.30
73137;DHT22;67767;45.636;11.756;2023-02-28T03:50:43;5.90;56.20
73137;DHT22;67767;45.636;11.756;2023-02-28T03:55:49;5.60;55.90
73137;DHT22;67767;45.636;11.756;2023-02-28T04:01:27;5.60;56.10
73137;DHT22;67767;45.636;11.756;2023-02-28T04:03:55;5.70;55.90
73137;DHT22;67767;45.636;11.756;2023-02-28T04:06:22;5.80;55.70
73137;DHT22;67767;45.636;11.756;2023-02-28T04:08:48;5.90;55.80
73137;DHT22;67767;45.636;11.756;2023-02-28T04:13:54;5.80;55.70
73137;DHT22;67767;45.636;11.756;2023-02-28T04:16:20;5.70;55.70
73137;DHT22;67767;45.636;11.756;2023-02-28T04:18:46;5.70;55.50
73137;DHT22;67767;45.636;11.756;2023-02-28T04:21:12;5.70;55.60
73137;DHT22;67767;45.636;11.756;2023-02-28T04:23:38;5.60;55.80
73137;DHT22;67767;45.636;11.756;2023-02-28T04:26:04;5.80;55.50
73137;DHT22;67767;45.636;11.756;2023-02-28T04:28:31;5.80;55.60
73137;DHT22;67767;45.636;11.756;2023-02-28T04:31:02;5.70;55.80
73137;DHT22;67767;45.636;11.756;2023-02-28T04:33:29;5.80;56.10
73137;DHT22;67767;45.636;11.756;2023-02-28T04:36:03;5.70;55.90
73137;DHT22;67767;45.636;11.756;2023-02-28T04:38:32;5.80;55.90
73137;DHT22;67767;45.636;11.756;2023-02-28T04:40:58;5.60;56.10
73137;DHT22;67767;45.636;11.756;2023-02-28T04:43:26;5.60;56.10
73137;DHT22;67767;45.636;11.756;2023-02-28T04:45:51;5.70;56.50
73137;DHT22;67767;45.636;11.756;2023-02-28T04:48:17;5.50;56.80
73137;DHT22;67767;45.636;11.756;2023-02-28T04:50:43;5.70;56.30
73137;DHT22;67767;45.636;11.756;2023-02-28T04:53:09;5.70;56.60
73137;DHT22;67767;45.636;11.756;2023-02-28T04:55:34;5.80;56.80
73137;DHT22;67767;45.636;11.756;2023-02-28T04:58:00;5.70;56.80
73137;DHT22;67767;45.636;11.756;2023-02-28T05:00:26;5.60;56.40
73137;DHT22;67767;45.636;11.756;2023-02-28T05:02:51;5.70;57.30
73137;DHT22;67767;45.636;11.756;2023-02-28T05:05:17;5.70;57.70
73137;DHT22;67767;45.636;11.756;2023-02-28T05:07:44;5.60;57.40
73137;DHT22;67767;45.636;11.756;2023-02-28T05:10:11;5.70;57.60
73137;DHT22;67767;45.636;11.756;2023-02-28T05:12:36;5.60;57.60
73137;DHT22;67767;45.636;11.756;2023-02-28T05:15:03;5.40;57.70
73137;DHT22;67767;45.636;11.756;2023-02-28T05:17:30;5.50;57.80
73137;DHT22;67767;45.636;11.756;2023-02-28T05:19:56;5.40;58.50
73137;DHT22;67767;45.636;11.756;2023-02-28T05:22:21;5.30;58.30
73137;DHT22;67767;45.636;11.756;2023-02-28T05:24:47;5.20;58.50
73137;DHT22;67767;45.636;11.756;2023-02-28T05:27:13;5.20;59.30
73137;DHT22;67767;45.636;11.756;2023-02-28T05:29:38;5.30;58.40
73137;DHT22;67767;45.636;11.756;2023-02-28T05:32:11;5.20;59.00
73137;DHT22;67767;45.636;11.756;2023-02-28T05:34:37;5.10;58.90
73137;DHT22;67767;45.636;11.756;2023-02-28T05:37:04;5.10;59.00
73137;DHT22;67767;45.636;11.756;2023-02-28T05:39:29;5.30;59.00
73137;DHT22;67767;45.636;11.756;2023-02-28T05:41:55;5.10;59.00
73137;DHT22;67767;45.636;11.756;2023-02-28T05:44:21;5.10;59.60
73137;DHT22;67767;45.636;11.756;2023-02-28T05:46:46;5.20;59.40
73137;DHT22;67767;45.636;11.756;2023-02-28T05:49:12;5.10;59.10
73137;DHT22;67767;45.636;11.756;2023-02-28T05:51:38;5.00;59.30
73137;DHT22;67767;45.636;11.756;2023-02-28T05:54:06;5.30;59.20
73137;DHT22;67767;45.636;11.756;2023-02-28T05:56:32;4.80;59.40
73137;DHT22;67767;45.636;11.756;2023-02-28T05:58:59;4.90;59.40
73137;DHT22;67767;45.636;11.756;2023-02-28T06:04:00;5.20;59.50
73137;DHT22;67767;45.636;11.756;2023-02-28T06:06:26;5.20;59.30
73137;DHT22;67767;45.636;11.756;2023-02-28T06:08:52;5.20;59.10
73137;DHT22;67767;45.636;11.756;2023-02-28T06:11:18;5.10;59.00
73137;DHT22;67767;45.636;11.756;2023-02-28T06:13:45;5.20;58.90
73137;DHT22;67767;45.636;11.756;2023-02-28T06:16:11;5.40;58.90
73137;DHT22;67767;45.636;11.756;2023-02-28T06:18:37;5.30;58.80
73137;DHT22;67767;45.636;11.756;2023-02-28T06:21:03;5.50;58.70
73137;DHT22;67767;45.636;11.756;2023-02-28T06:23:29;5.40;58.20
73137;DHT22;67767;45.636;11.756;2023-02-28T06:25:54;5.30;57.90
73137;DHT22;67767;45.636;11.756;2023-02-28T06:28:24;5.70;58.10
73137;DHT22;67767;45.636;11.756;2023-02-28T06:30:50;5.60;58.10
73137;DHT22;67767;45.636;11.756;2023-02-28T06:33:16;5.60;57.90
73137;DHT22;67767;45.636;11.756;2023-02-28T06:35:47;5.70;58.10
73137;DHT22;67767;45.636;11.756;2023-02-28T06:38:13;5.60;58.30
73137;DHT22;67767;45.636;11.756;2023-02-28T06:40:39;5.70;58.50
73137;DHT22;67767;45.636;11.756;2023-02-28T06:43:04;5.70;58.60
73137;DHT22;67767;45.636;11.756;2023-02-28T06:45:30;5.60;58.20
73137;DHT22;67767;45.636;11.756;2023-02-28T06:47:56;6.00;58.30
73137;DHT22;67767;45.636;11.756;2023-02-28T06:50:21;6.10;57.50
73137;DHT22;67767;45.636;11.756;2023-02-28T06:52:47;6.30;57.20
73137;DHT22;67767;45.636;11.756;2023-02-28T06:55:13;6.40;57.20
73137;DHT22;67767;45.636;11.756;2023-02-28T06:57:39;6.60;57.00
73137;DHT22;67767;45.636;11.756;2023-02-28T07:00:08;6.70;56.50
73137;DHT22;67767;45.636;11.756;2023-02-28T07:02:35;6.70;56.20
73137;DHT22;67767;45.636;11.756;2023-02-28T07:05:01;6.90;56.80
73137;DHT22;67767;45.636;11.756;2023-02-28T07:07:27;7.00;56.80
73137;DHT22;67767;45.636;11.756;2023-02-28T07:09:52;7.20;56.40
73137;DHT22;67767;45.636;11.756;2023-02-28T07:12:18;7.30;55.30
73137;DHT22;67767;45.636;11.756;2023-02-28T07:14:44;7.40;53.80
73137;DHT22;67767;45.636;11.756;2023-02-28T07:17:10;7.50;54.30
73137;DHT22;67767;45.636;11.756;2023-02-28T07:19:38;7.60;53.80
73137;DHT22;67767;45.636;11.756;2023-02-28T07:22:04;7.80;53.30
73137;DHT22;67767;45.636;11.756;2023-02-28T07:24:30;7.80;52.80
73137;DHT22;67767;45.636;11.756;2023-02-28T07:26:56;7.90;53.00
73137;DHT22;67767;45.636;11.756;2023-02-28T07:29:21;8.10;52.70
73137;DHT22;67767;45.636;11.756;2023-02-28T07:31:47;8.10;52.20
73137;DHT22;67767;45.636;11.756;2023-02-28T07:34:13;8.10;52.20
73137;DHT22;67767;45.636;11.756;2023-02-28T07:36:39;8.00;52.20
73137;DHT22;67767;45.636;11.756;2023-02-28T07:39:05;8.00;51.80
73137;DHT22;67767;45.636;11.756;2023-02-28T07:41:31;8.00;52.10
73137;DHT22;67767;45.636;11.756;2023-02-28T07:43:59;8.00;51.40
73137;DHT22;67767;45.636;11.756;2023-02-28T07:46:25;8.10;51.30
73137;DHT22;67767;45.636;11.756;2023-02-28T07:48:51;8.30;51.70
73137;DHT22;67767;45.636;11.756;2023-02-28T07:51:18;8.40;51.40
73137;DHT22;67767;45.636;11.756;2023-02-28T07:53:44;8.40;50.90
73137;DHT22;67767;45.636;11.756;2023-02-28T07:56:10;8.30;50.50
73137;DHT22;67767;45.636;11.756;2023-02-28T07:58:36;8.40;51.00
73137;DHT22;67767;45.636;11.756;2023-02-28T08:01:09;8.50;50.40
73137;DHT22;67767;45.636;11.756;2023-02-28T08:03:36;8.40;50.80
73137;DHT22;67767;45.636;11.756;2023-02-28T08:06:06;8.50;50.60
73137;DHT22;67767;45.636;11.756;2023-02-28T08:08:32;8.60;50.10
73137;DHT22;67767;45.636;11.756;2023-02-28T08:10:59;8.60;50.90
73137;DHT22;67767;45.636;11.756;2023-02-28T08:13:26;8.50;50.70
73137;DHT22;67767;45.636;11.756;2023-02-28T08:15:55;8.30;50.50
73137;DHT22;67767;45.636;11.756;2023-02-28T08:18:22;8.40;50.60
73137;DHT22;67767;45.636;11.756;2023-02-28T08:20:47;8.30;49.80
73137;DHT22;67767;45.636;11.756;2023-02-28T08:23:13;8.50;50.30
73137;DHT22;67767;45.636;11.756;2023-02-28T08:25:39;8.60;50.00
73137;DHT22;67767;45.636;11.756;2023-02-28T08:28:05;8.70;50.30
73137;DHT22;67767;45.636;11.756;2023-02-28T08:30:31;9.00;49.80
73137;DHT22;67767;45.636;11.756;2023-02-28T08:32:56;9.00;50.20
73137;DHT22;67767;45.636;11.756;2023-02-28T08:35:22;9.10;49.80
73137;DHT22;67767;45.636;11.756;2023-02-28T08:37:48;8.90;49.90
73137;DHT22;67767;45.636;11.756;2023-02-28T08:40:15;8.70;50.50
73137;DHT22;67767;45.636;11.756;2023-02-28T08:42:47;8.90;50.50
73137;DHT22;67767;45.636;11.756;2023-02-28T08:45:14;8.70;49.80
73137;DHT22;67767;45.636;11.756;2023-02-28T08:47:40;8.90;49.30
73137;DHT22;67767;45.636;11.756;2023-02-28T08:50:06;9.10;49.50
73137;DHT22;67767;45.636;11.756;2023-02-28T08:52:32;9.00;48.70
73137;DHT22;67767;45.636;11.756;2023-02-28T08:54:59;9.20;48.70
73137;DHT22;67767;45.636;11.756;2023-02-28T08:57:25;9.10;49.00
73137;DHT22;67767;45.636;11.756;2023-02-28T08:59:53;9.00;48.30
73137;DHT22;67767;45.636;11.756;2023-02-28T09:02:19;9.40;49.30
73137;DHT22;67767;45.636;11.756;2023-02-28T09:04:45;9.60;48.50
73137;DHT22;67767;45.636;11.756;2023-02-28T09:07:11;9.60;48.10
73137;DHT22;67767;45.636;11.756;2023-02-28T09:09:37;9.60;48.40
73137;DHT22;67767;45.636;11.756;2023-02-28T09:12:03;9.70;49.00
73137;DHT22;67767;45.636;11.756;2023-02-28T09:14:29;9.50;48.90
73137;DHT22;67767;45.636;11.756;2023-02-28T09:16:55;9.80;48.60
73137;DHT22;67767;45.636;11.756;2023-02-28T09:19:21;9.80;47.60
73137;DHT22;67767;45.636;11.756;2023-02-28T09:21:47;9.80;47.50
73137;DHT22;67767;45.636;11.756;2023-02-28T09:24:13;9.40;47.70
73137;DHT22;67767;45.636;11.756;2023-02-28T09:26:40;9.70;47.90
73137;DHT22;67767;45.636;11.756;2023-02-28T09:29:06;10.10;48.40
73137;DHT22;67767;45.636;11.756;2023-02-28T09:31:32;10.10;46.20
73137;DHT22;67767;45.636;11.756;2023-02-28T09:33:58;9.80;46.90
73137;DHT22;67767;45.636;11.756;2023-02-28T09:36:26;10.10;46.90
73137;DHT22;67767;45.636;11.756;2023-02-28T09:38:52;10.00;46.20
73137;DHT22;67767;45.636;11.756;2023-02-28T09:41:25;10.40;47.00
73137;DHT22;67767;45.636;11.756;2023-02-28T09:43:59;10.30;46.20
73137;DHT22;67767;45.636;11.756;2023-02-28T09:46:38;10.60;46.20
73137;DHT22;67767;45.636;11.756;2023-02-28T09:49:15;10.50;46.00
73137;DHT22;67767;45.636;11.756;2023-02-28T09:51:58;10.60;46.60
73137;DHT22;67767;45.636;11.756;2023-02-28T09:54:28;10.30;45.80
73137;DHT22;67767;45.636;11.756;2023-02-28T10:05:13;11.10;46.70
73137;DHT22;67767;45.636;11.756;2023-02-28T10:10:27;11.60;46.00
73137;DHT22;67767;45.636;11.756;2023-02-28T10:12:57;11.50;45.20
73137;DHT22;67767;45.636;11.756;2023-02-28T10:15:27;11.50;45.40
73137;DHT22;67767;45.636;11.756;2023-02-28T10:17:58;11.20;45.60
73137;DHT22;67767;45.636;11.756;2023-02-28T10:20:25;11.40;45.20
73137;DHT22;67767;45.636;11.756;2023-02-28T10:23:17;11.50;44.30
73137;DHT22;67767;45.636;11.756;2023-02-28T10:25:50;11.70;43.90
73137;DHT22;67767;45.636;11.756;2023-02-28T10:28:18;11.70;43.70
73137;DHT22;67767;45.636;11.756;2023-02-28T10:30:49;11.70;43.50
73137;DHT22;67767;45.636;11.756;2023-02-28T10:35:56;11.60;44.70
73137;DHT22;67767;45.636;11.756;2023-02-28T10:38:28;11.80;44.40
73137;DHT22;67767;45.636;11.756;2023-02-28T10:43:32;12.20;44.30
73137;DHT22;67767;45.636;11.756;2023-02-28T10:46:18;12.20;43.50
73137;DHT22;67767;45.636;11.756;2023-02-28T10:49:02;12.30;43.20
73137;DHT22;67767;45.636;11.756;2023-02-28T10:51:35;12.40;43.10
73137;DHT22;67767;45.636;11.756;2023-02-28T10:54:02;12.30;43.40
73137;DHT22;67767;45.636;11.756;2023-02-28T10:56:28;12.10;43.80
73137;DHT22;67767;45.636;11.756;2023-02-28T10:59:21;12.50;43.50
73137;DHT22;67767;45.636;11.756;2023-02-28T11:01:47;12.50;42.60
73137;DHT22;67767;45.636;11.756;2023-02-28T11:07:22;12.80;41.60
73137;DHT22;67767;45.636;11.756;2023-02-28T11:09:51;13.00;40.60
73137;DHT22;67767;45.636;11.756;2023-02-28T11:12:25;13.50;39.50
73137;DHT22;67767;45.636;11.756;2023-02-28T11:15:24;13.70;39.40
73137;DHT22;67767;45.636;11.756;2023-02-28T11:20:28;14.10;38.40
73137;DHT22;67767;45.636;11.756;2023-02-28T11:22:55;14.20;38.20
73137;DHT22;67767;45.636;11.756;2023-02-28T11:25:29;14.20;38.50
73137;DHT22;67767;45.636;11.756;2023-02-28T11:28:00;14.30;39.20
73137;DHT22;67767;45.636;11.756;2023-02-28T11:30:44;14.70;38.00
73137;DHT22;67767;45.636;11.756;2023-02-28T11:35:50;14.40;37.60
73137;DHT22;67767;45.636;11.756;2023-02-28T11:38:16;14.90;37.40
73137;DHT22;67767;45.636;11.756;2023-02-28T11:40:56;15.50;34.70
73137;DHT22;67767;45.636;11.756;2023-02-28T11:43:36;15.40;35.40
73137;DHT22;67767;45.636;11.756;2023-02-28T11:49:26;15.10;36.50
73137;DHT22;67767;45.636;11.756;2023-02-28T11:52:05;15.10;36.10
73137;DHT22;67767;45.636;11.756;2023-02-28T12:03:03;15.70;34.30
73137;DHT22;67767;45.636;11.756;2023-02-28T12:05:37;15.70;34.30
73137;DHT22;67767;45.636;11.756;2023-02-28T12:11:56;16.20;32.70
73137;DHT22;67767;45.636;11.756;2023-02-28T12:25:21;16.60;33.40
73137;DHT22;67767;45.636;11.756;2023-02-28T12:27:48;17.00;33.30
73137;DHT22;67767;45.636;11.756;2023-02-28T12:30:27;17.20;33.00
73137;DHT22;67767;45.636;11.756;2023-02-28T12:33:06;17.50;31.80
73137;DHT22;67767;45.636;11.756;2023-02-28T12:35:37;17.30;32.00
73137;DHT22;67767;45.636;11.756;2023-02-28T12:38:19;17.50;32.10
73137;DHT22;67767;45.636;11.756;2023-02-28T12:40:51;17.20;31.90
73137;DHT22;67767;45.636;11.756;2023-02-28T12:43:18;16.60;32.50
73137;DHT22;67767;45.636;11.756;2023-02-28T12:45:52;16.60;32.40
73137;DHT22;67767;45.636;11.756;2023-02-28T12:48:32;17.20;32.20
73137;DHT22;67767;45.636;11.756;2023-02-28T12:51:03;17.90;31.70
73137;DHT22;67767;45.636;11.756;2023-02-28T12:53:41;18.10;30.50
73137;DHT22;67767;45.636;11.756;2023-02-28T12:59:23;18.40;28.60
73137;DHT22;67767;45.636;11.756;2023-02-28T13:02:23;18.80;27.90
73137;DHT22;67767;45.636;11.756;2023-02-28T13:10:22;18.30;29.40
73137;DHT22;67767;45.636;11.756;2023-02-28T13:12:52;17.70;31.30
73137;DHT22;67767;45.636;11.756;2023-02-28T13:15:27;18.00;30.80
73137;DHT22;67767;45.636;11.756;2023-02-28T13:17:56;18.50;30.30
73137;DHT22;67767;45.636;11.756;2023-02-28T13:20:24;17.70;31.30
73137;DHT22;67767;45.636;11.756;2023-02-28T13:22:54;17.80;31.10
73137;DHT22;67767;45.636;11.756;2023-02-28T13:28:12;18.70;29.70
73137;DHT22;67767;45.636;11.756;2023-02-28T13:33:28;18.80;29.30
73137;DHT22;67767;45.636;11.756;2023-02-28T13:44:06;19.40;28.20
73137;DHT22;67767;45.636;11.756;2023-02-28T13:46:35;19.00;29.20
73137;DHT22;67767;45.636;11.756;2023-02-28T14:05:18;19.10;28.20
73137;DHT22;67767;45.636;11.756;2023-02-28T14:07:53;19.50;27.50
73137;DHT22;67767;45.636;11.756;2023-02-28T14:10:41;19.50;27.10
73137;DHT22;67767;45.636;11.756;2023-02-28T14:15:48;17.70;31.10
73137;DHT22;67767;45.636;11.756;2023-02-28T14:18:24;16.90;32.80
73137;DHT22;67767;45.636;11.756;2023-02-28T14:20:55;16.30;33.50
73137;DHT22;67767;45.636;11.756;2023-02-28T14:23:43;16.10;33.70
73137;DHT22;67767;45.636;11.756;2023-02-28T14:37:33;15.80;34.10
73137;DHT22;67767;45.636;11.756;2023-02-28T14:40:00;15.80;35.90
73137;DHT22;67767;45.636;11.756;2023-02-28T14:42:37;15.70;35.80
73137;DHT22;67767;45.636;11.756;2023-02-28T14:45:20;15.30;37.00
73137;DHT22;67767;45.636;11.756;2023-02-28T14:47:46;15.40;38.00
73137;DHT22;67767;45.636;11.756;2023-02-28T14:50:39;15.20;37.00
73137;DHT22;67767;45.636;11.756;2023-02-28T14:53:09;15.10;38.70
73137;DHT22;67767;45.636;11.756;2023-02-28T14:55:45;14.90;37.70
73137;DHT22;67767;45.636;11.756;2023-02-28T15:00:54;14.70;37.90
73137;DHT22;67767;45.636;11.756;2023-02-28T15:03:35;14.80;38.10
73137;DHT22;67767;45.636;11.756;2023-02-28T15:06:14;14.60;37.50
73137;DHT22;67767;45.636;11.756;2023-02-28T15:08:40;14.60;37.50
73137;DHT22;67767;45.636;11.756;2023-02-28T15:11:15;14.30;38.50
73137;DHT22;67767;45.636;11.756;2023-02-28T15:13:49;14.20;38.90
73137;DHT22;67767;45.636;11.756;2023-02-28T15:16:19;14.20;38.90
73137;DHT22;67767;45.636;11.756;2023-02-28T15:18:57;14.10;39.10
73137;DHT22;67767;45.636;11.756;2023-02-28T15:21:40;14.00;38.80
73137;DHT22;67767;45.636;11.756;2023-02-28T15:24:20;14.10;38.70
73137;DHT22;67767;45.636;11.756;2023-02-28T15:26:55;14.10;39.20
73137;DHT22;67767;45.636;11.756;2023-02-28T15:29:25;14.10;38.90
73137;DHT22;67767;45.636;11.756;2023-02-28T15:32:03;13.80;39.70
73137;DHT22;67767;45.636;11.756;2023-02-28T15:37:01;13.60;39.40
73137;DHT22;67767;45.636;11.756;2023-02-28T15:39:28;13.60;40.70
73137;DHT22;67767;45.636;11.756;2023-02-28T15:42:16;13.60;41.20
73137;DHT22;67767;45.636;11.756;2023-02-28T15:44:43;13.70;40.40
73137;DHT22;67767;45.636;11.756;2023-02-28T15:47:28;13.60;41.00
73137;DHT22;67767;45.636;11.756;2023-02-28T15:50:03;13.40;40.20
73137;DHT22;67767;45.636;11.756;2023-02-28T15:52:44;13.50;40.10
73137;DHT22;67767;45.636;11.756;2023-02-28T15:55:25;13.50;40.40
73137;DHT22;67767;45.636;11.756;2023-02-28T15:57:55;13.20;40.70
73137;DHT22;67767;45.636;11.756;2023-02-28T16:00:26;13.00;41.70
73137;DHT22;67767;45.636;11.756;2023-02-28T16:02:52;13.20;41.60
73137;DHT22;67767;45.636;11.756;2023-02-28T16:05:25;13.20;41.50
73137;DHT22;67767;45.636;11.756;2023-02-28T16:08:00;12.90;42.00
73137;DHT22;67767;45.636;11.756;2023-02-28T16:10:28;13.00;42.40
73137;DHT22;67767;45.636;11.756;2023-02-28T16:12:55;13.00;42.10
73137;DHT22;67767;45.636;11.756;2023-02-28T16:17:48;12.80;43.50
73137;DHT22;67767;45.636;11.756;2023-02-28T16:20:24;12.80;43.50
73137;DHT22;67767;45.636;11.756;2023-02-28T16:22:51;12.70;42.60
73137;DHT22;67767;45.636;11.756;2023-02-28T16:25:19;12.60;44.60
73137;DHT22;67767;45.636;11.756;2023-02-28T16:27:49;12.50;44.20
73137;DHT22;67767;45.636;11.756;2023-02-28T16:30:23;12.40;45.30
73137;DHT22;67767;45.636;11.756;2023-02-28T16:32:49;12.30;44.90
73137;DHT22;67767;45.636;11.756;2023-02-28T16:35:16;12.30;45.40
73137;DHT22;67767;45.636;11.756;2023-02-28T16:37:43;12.20;46.00
73137;DHT22;67767;45.636;11.756;2023-02-28T16:40:14;12.30;45.80
73137;DHT22;67767;45.636;11.756;2023-02-28T16:42:40;12.10;45.90
73137;DHT22;67767;45.636;11.756;2023-02-28T16:45:10;12.10;49.90
73137;DHT22;67767;45.636;11.756;2023-02-28T16:47:36;11.90;51.50
73137;DHT22;67767;45.636;11.756;2023-02-28T16:50:12;11.80;52.70
73137;DHT22;67767;45.636;11.756;2023-02-28T16:52:38;11.70;53.60
73137;DHT22;67767;45.636;11.756;2023-02-28T16:55:04;11.70;53.90
73137;DHT22;67767;45.636;11.756;2023-02-28T16:57:30;11.60;54.30
73137;DHT22;67767;45.636;11.756;2023-02-28T16:59:55;11.40;54.80
73137;DHT22;67767;45.636;11.756;2023-02-28T17:02:21;11.40;55.10
73137;DHT22;67767;45.636;11.756;2023-02-28T17:04:47;11.30;55.50
73137;DHT22;67767;45.636;11.756;2023-02-28T17:07:14;11.00;55.60
73137;DHT22;67767;45.636;11.756;2023-02-28T17:09:41;11.00;55.80
73137;DHT22;67767;45.636;11.756;2023-02-28T17:12:07;11.00;55.90
73137;DHT22;67767;45.636;11.756;2023-02-28T17:14:34;10.90;56.40
73137;DHT22;67767;45.636;11.756;2023-02-28T17:17:00;10.70;56.60
73137;DHT22;67767;45.636;11.756;2023-02-28T17:19:26;10.70;56.70
73137;DHT22;67767;45.636;11.756;2023-02-28T17:21:51;10.70;56.60
73137;DHT22;67767;45.636;11.756;2023-02-28T17:24:18;10.60;56.90
73137;DHT22;67767;45.636;11.756;2023-02-28T17:26:43;10.50;57.00
73137;DHT22;67767;45.636;11.756;2023-02-28T17:29:18;10.40;57.00
73137;DHT22;67767;45.636;11.756;2023-02-28T17:31:44;10.30;57.20
73137;DHT22;67767;45.636;11.756;2023-02-28T17:34:11;10.30;57.20
73137;DHT22;67767;45.636;11.756;2023-02-28T17:36:37;10.40;57.10
73137;DHT22;67767;45.636;11.756;2023-02-28T17:39:04;10.20;57.90
73137;DHT22;67767;45.636;11.756;2023-02-28T17:41:34;10.20;58.20
73137;DHT22;67767;45.636;11.756;2023-02-28T17:44:00;10.10;57.90
73137;DHT22;67767;45.636;11.756;2023-02-28T17:46:25;10.00;57.70
73137;DHT22;67767;45.636;11.756;2023-02-28T17:48:52;10.00;58.10
73137;DHT22;67767;45.636;11.756;2023-02-28T17:51:20;9.90;58.30
73137;DHT22;67767;45.636;11.756;2023-02-28T17:53:46;9.80;58.80
73137;DHT22;67767;45.636;11.756;2023-02-28T17:56:19;9.90;58.80
73137;DHT22;67767;45.636;11.756;2023-02-28T17:58:45;9.80;58.50
73137;DHT22;67767;45.636;11.756;2023-02-28T18:01:11;9.70;59.00
73137;DHT22;67767;45.636;11.756;2023-02-28T18:03:37;9.70;58.90
73137;DHT22;67767;45.636;11.756;2023-02-28T18:06:04;9.60;59.30
73137;DHT22;67767;45.636;11.756;2023-02-28T18:08:32;9.50;58.90
73137;DHT22;67767;45.636;11.756;2023-02-28T18:11:00;9.50;58.90
73137;DHT22;67767;45.636;11.756;2023-02-28T18:13:26;9.40;58.90
73137;DHT22;67767;45.636;11.756;2023-02-28T18:15:53;9.50;58.50
73137;DHT22;67767;45.636;11.756;2023-02-28T18:18:19;9.40;58.70
73137;DHT22;67767;45.636;11.756;2023-02-28T18:20:45;9.40;58.20